Mesena, Georgia
Current Conditions -  °F | °C
As of 3:35 PM on Wednesday 26 Nov 2014 (Local Time) from KHQU Reporting Station
Clear Clear  
Wind Chill: 59°   Ceiling: Unl
Heat Index: 59°   Visibility: 10mi
Dew Point: 40°   Wind: 10mph
Humidity: 48%   Direction: 250°WSW
Pressure: 30.08"   Gusts: 16mph
Location:  33.46°N, 82.59°W
Report Text: KHQU 262035Z AUTO 25009G14KT 10SM CLR 15/04 A3008 RMK AO1 T01520043
Loading
Personal Weather Stations






























Interactive Weather Map New forecast layout! Learn more

10-Day Weather Forecast

Advertisements
Track Severe Weather on mobile